createdAt,value
2019-01-15T00:00:25.992Z,70.24
2019-01-15T00:02:53.957Z,70.80
2019-01-15T00:05:21.909Z,70.40
2019-01-15T00:07:49.877Z,70.45
2019-01-15T00:10:17.499Z,70.65
2019-01-15T00:12:45.122Z,70.64
2019-01-15T00:15:13.071Z,71.04
2019-01-15T00:17:41.057Z,70.88
2019-01-15T00:20:09.009Z,71.41
2019-01-15T00:22:36.625Z,71.40
2019-01-15T00:25:04.539Z,71.91
2019-01-15T00:27:32.149Z,71.78
2019-01-15T00:29:59.779Z,72.99
2019-01-15T00:32:27.732Z,74.24
2019-01-15T00:34:55.704Z,74.89
2019-01-15T00:37:23.676Z,74.84
2019-01-15T00:39:51.293Z,74.96
2019-01-15T00:42:19.197Z,76.13
2019-01-15T00:44:46.817Z,77.42
2019-01-15T00:47:14.729Z,77.25
2019-01-15T00:49:42.705Z,77.32
2019-01-15T00:52:10.666Z,77.66
2019-01-15T00:54:38.637Z,78.17
2019-01-15T00:57:06.255Z,77.93
2019-01-15T00:59:33.888Z,78.26
2019-01-15T01:02:01.505Z,78.59
2019-01-15T01:04:29.388Z,78.17
2019-01-15T01:06:57.000Z,78.08
2019-01-15T01:09:24.936Z,77.01
2019-01-15T01:11:52.554Z,75.65
2019-01-15T01:14:20.182Z,74.74
2019-01-15T01:16:48.109Z,73.50
2019-01-15T01:19:16.077Z,74.30
2019-01-15T01:21:43.697Z,73.18
2019-01-15T01:24:11.610Z,72.89
2019-01-15T01:26:39.585Z,72.92
2019-01-15T01:29:07.214Z,73.76
2019-01-15T01:31:35.108Z,73.56
2019-01-15T01:34:03.087Z,74.15
2019-01-15T01:36:31.054Z,74.22
2019-01-15T01:38:59.023Z,74.35
2019-01-15T01:41:26.991Z,74.36
2019-01-15T01:43:54.960Z,74.48
2019-01-15T01:46:22.580Z,74.71
2019-01-15T01:48:50.488Z,75.20
2019-01-15T01:51:18.107Z,75.12
2019-01-15T01:53:45.731Z,73.44
2019-01-15T01:56:13.344Z,73.34
2019-01-15T01:58:41.258Z,73.39
2019-01-15T02:01:08.867Z,73.59
2019-01-15T02:03:36.771Z,73.10
2019-01-15T02:06:04.739Z,73.28
2019-01-15T02:08:32.711Z,72.62
2019-01-15T02:11:00.681Z,73.71
2019-01-15T02:13:28.647Z,73.42
2019-01-15T02:15:56.617Z,73.72
2019-01-15T02:18:24.230Z,73.56
2019-01-15T02:20:52.349Z,73.76
2019-01-15T02:23:20.322Z,74.22
2019-01-15T02:25:47.949Z,73.56
2019-01-15T02:28:15.853Z,73.61
2019-01-15T02:30:43.479Z,73.50
2019-01-15T02:33:11.095Z,73.14
2019-01-15T02:35:39.040Z,73.87
2019-01-15T02:38:07.010Z,73.94
2019-01-15T02:40:34.637Z,74.03
2019-01-15T02:43:02.565Z,72.59
2019-01-15T02:45:30.511Z,72.69
2019-01-15T02:47:58.147Z,72.20
2019-01-15T02:50:25.783Z,72.34
2019-01-15T02:52:53.387Z,72.41
2019-01-15T02:55:21.012Z,72.60
2019-01-15T02:57:48.931Z,72.30
2019-01-15T03:00:16.560Z,71.92
2019-01-15T03:02:44.176Z,71.47
2019-01-15T03:05:12.133Z,71.27
2019-01-15T03:07:40.086Z,71.99
2019-01-15T03:10:08.065Z,71.76
2019-01-15T03:12:35.875Z,71.34
2019-01-15T03:15:03.810Z,71.88
2019-01-15T03:17:31.440Z,71.45
2019-01-15T03:19:59.481Z,70.87
2019-01-15T03:22:27.409Z,71.50
2019-01-15T03:24:55.031Z,71.71
2019-01-15T03:27:22.927Z,72.16
2019-01-15T03:29:50.898Z,71.86
2019-01-15T03:32:18.512Z,71.93
2019-01-15T03:34:46.438Z,71.38
2019-01-15T03:37:14.074Z,71.27
2019-01-15T03:39:42.055Z,71.77
2019-01-15T03:42:09.671Z,71.90
2019-01-15T03:44:37.581Z,71.57
2019-01-15T03:47:05.550Z,71.89
2019-01-15T03:49:33.528Z,71.85
2019-01-15T03:52:01.489Z,71.57
2019-01-15T03:54:29.356Z,71.22
2019-01-15T03:56:57.331Z,71.31
2019-01-15T03:59:24.953Z,72.37
2019-01-15T04:01:52.858Z,71.16
2019-01-15T04:04:20.832Z,71.52
2019-01-15T04:06:48.800Z,71.48
2019-01-15T04:09:16.766Z,70.24
2019-01-15T04:11:44.745Z,70.47
2019-01-15T04:14:12.706Z,69.84
2019-01-15T04:16:40.678Z,69.64
2019-01-15T04:19:08.666Z,70.60
2019-01-15T04:21:36.294Z,70.81
2019-01-15T04:24:03.919Z,71.69
2019-01-15T04:26:31.548Z,71.79
2019-01-15T04:28:59.504Z,72.06
2019-01-15T04:31:27.474Z,71.86
2019-01-15T04:33:55.419Z,71.81
2019-01-15T04:36:23.069Z,71.71
2019-01-15T04:38:50.676Z,71.14
2019-01-15T04:41:18.306Z,70.55
2019-01-15T04:43:45.999Z,71.49
2019-01-15T04:46:13.956Z,72.11
2019-01-15T04:48:41.928Z,72.64
2019-01-15T04:51:09.892Z,72.96
2019-01-15T04:53:37.884Z,72.09
2019-01-15T04:56:05.846Z,72.30
2019-01-15T04:58:33.808Z,73.82
2019-01-15T05:01:01.776Z,73.93
2019-01-15T05:03:29.744Z,73.12
2019-01-15T05:05:57.368Z,73.33
2019-01-15T05:08:25.275Z,73.03
2019-01-15T05:10:53.249Z,73.35
2019-01-15T05:13:27.349Z,73.79
2019-01-15T05:15:50.819Z,74.68
2019-01-15T05:18:18.790Z,75.26
2019-01-15T05:20:46.763Z,75.54
2019-01-15T05:23:14.641Z,76.00
2019-01-15T05:25:42.598Z,76.55
2019-01-15T05:28:10.589Z,76.49
2019-01-15T05:30:38.209Z,77.33
2019-01-15T05:33:05.825Z,77.74
2019-01-15T05:35:33.452Z,78.36
2019-01-15T05:38:01.062Z,78.93
2019-01-15T05:40:28.699Z,78.96
2019-01-15T05:42:56.646Z,79.36
2019-01-15T05:45:32.808Z,79.94
2019-01-15T05:48:05.074Z,80.57
2019-01-15T05:50:41.050Z,80.04
2019-01-15T05:53:08.677Z,79.97
2019-01-15T05:55:36.566Z,79.58
2019-01-15T05:58:04.254Z,78.98
2019-01-15T06:00:32.201Z,79.12
2019-01-15T06:02:59.841Z,78.50
2019-01-15T06:05:27.724Z,77.75
2019-01-15T06:07:55.348Z,77.79
2019-01-15T06:10:23.272Z,77.53
2019-01-15T06:12:51.224Z,77.64
2019-01-15T06:15:19.198Z,77.37
2019-01-15T06:17:47.161Z,77.30
2019-01-15T06:20:15.131Z,76.51
2019-01-15T06:22:43.103Z,76.29
2019-01-15T06:25:11.084Z,76.48
2019-01-15T06:27:39.041Z,76.01
2019-01-15T06:30:07.010Z,75.73
2019-01-15T06:32:34.977Z,75.31
2019-01-15T06:35:02.598Z,74.98
2019-01-15T06:37:30.527Z,74.98
2019-01-15T06:39:58.154Z,75.06
2019-01-15T06:42:26.248Z,74.83
2019-01-15T06:44:53.867Z,75.29
2019-01-15T06:47:21.493Z,73.75
2019-01-15T06:49:49.436Z,74.44
2019-01-15T06:52:17.401Z,73.87
2019-01-15T06:54:45.397Z,73.62
2019-01-15T06:57:13.343Z,73.86
2019-01-15T06:59:41.220Z,73.64
2019-01-15T07:02:09.187Z,73.47
2019-01-15T07:04:43.647Z,73.84
2019-01-15T07:07:06.451Z,73.02
2019-01-15T07:09:34.423Z,73.31
2019-01-15T07:12:02.054Z,74.08
2019-01-15T07:14:29.683Z,72.88
2019-01-15T07:16:58.434Z,72.89
2019-01-15T07:19:26.057Z,73.21
2019-01-15T07:21:53.765Z,72.49
2019-01-15T07:24:21.398Z,72.20
2019-01-15T07:26:49.031Z,72.07
2019-01-15T07:29:16.947Z,72.00
2019-01-15T07:31:44.919Z,71.60
2019-01-15T07:34:12.889Z,72.20
2019-01-15T07:36:40.856Z,72.18
2019-01-15T07:39:08.486Z,72.11
2019-01-15T07:41:36.498Z,71.78
2019-01-15T07:44:04.656Z,72.22
2019-01-15T07:46:32.745Z,71.93
2019-01-15T07:49:00.725Z,71.87
2019-01-15T07:51:28.353Z,71.47
2019-01-15T07:53:56.342Z,71.19
2019-01-15T07:56:24.310Z,71.82
2019-01-15T07:58:51.952Z,71.35
2019-01-15T08:01:21.781Z,71.04
2019-01-15T08:03:49.763Z,71.75
2019-01-15T08:06:17.728Z,71.67
2019-01-15T08:08:45.692Z,71.42
2019-01-15T08:11:13.666Z,71.20
2019-01-15T08:13:41.734Z,70.75
2019-01-15T08:16:09.354Z,70.61
2019-01-15T08:18:37.266Z,70.22
2019-01-15T08:21:04.896Z,70.06
2019-01-15T08:23:32.520Z,69.93
2019-01-15T08:26:00.455Z,69.41
2019-01-15T08:28:28.422Z,69.22
2019-01-15T08:30:56.052Z,68.90
2019-01-15T08:33:23.965Z,69.40
2019-01-15T08:35:52.435Z,69.65
2019-01-15T08:38:20.066Z,68.82
2019-01-15T08:40:47.701Z,69.22
2019-01-15T08:43:15.626Z,68.41
2019-01-15T08:45:43.706Z,68.65
2019-01-15T08:48:15.558Z,68.51
2019-01-15T08:50:43.555Z,68.24
2019-01-15T08:53:12.843Z,67.70
2019-01-15T08:55:40.816Z,68.27
2019-01-15T08:58:08.780Z,67.96
2019-01-15T09:00:36.740Z,67.54
2019-01-15T09:03:04.943Z,67.71
2019-01-15T09:05:32.879Z,67.75
2019-01-15T09:08:00.525Z,67.42
2019-01-15T09:10:28.159Z,66.67
2019-01-15T09:12:56.087Z,67.01
2019-01-15T09:15:23.718Z,67.45
2019-01-15T09:17:51.606Z,66.74
2019-01-15T09:20:19.230Z,66.43
2019-01-15T09:22:47.133Z,67.15
2019-01-15T09:25:15.123Z,66.91
2019-01-15T09:27:43.076Z,66.88
2019-01-15T09:30:11.046Z,66.46
2019-01-15T09:32:39.031Z,66.02
2019-01-15T09:35:06.657Z,66.92
2019-01-15T09:37:35.362Z,66.59
2019-01-15T09:40:03.329Z,66.77
2019-01-15T09:42:31.305Z,66.31
2019-01-15T09:44:59.073Z,66.56
2019-01-15T09:47:26.708Z,66.61
2019-01-15T09:49:54.345Z,66.41
2019-01-15T09:52:22.374Z,66.11
2019-01-15T09:54:50.458Z,65.62
2019-01-15T09:57:18.076Z,65.69
2019-01-15T09:59:45.959Z,66.51
2019-01-15T10:02:13.594Z,65.90
2019-01-15T10:04:41.499Z,66.19
2019-01-15T10:07:09.466Z,66.66
2019-01-15T10:09:37.431Z,66.05
2019-01-15T10:12:05.502Z,65.62
2019-01-15T10:14:33.144Z,65.64
2019-01-15T10:17:01.164Z,65.94
2019-01-15T10:19:29.203Z,66.25
2019-01-15T10:21:57.013Z,66.12
2019-01-15T10:24:24.960Z,66.25
2019-01-15T10:26:52.931Z,66.30
2019-01-15T10:29:22.629Z,66.69
2019-01-15T10:31:50.897Z,66.36
2019-01-15T10:34:18.874Z,66.56
2019-01-15T10:36:46.937Z,66.31
2019-01-15T10:39:14.911Z,66.61
2019-01-15T10:41:42.883Z,66.32
2019-01-15T10:44:10.519Z,66.57
2019-01-15T10:46:38.416Z,66.42
2019-01-15T10:49:06.041Z,66.37
2019-01-15T10:51:33.664Z,67.70
2019-01-15T10:54:01.727Z,67.83
2019-01-15T10:56:29.364Z,69.29
2019-01-15T10:58:56.991Z,70.96
2019-01-15T11:01:24.893Z,72.94
2019-01-15T11:03:52.860Z,74.10
2019-01-15T11:06:20.833Z,74.95
2019-01-15T11:08:48.807Z,75.41
2019-01-15T11:11:16.434Z,76.16
2019-01-15T11:13:44.433Z,76.40
2019-01-15T11:16:12.065Z,76.85
2019-01-15T11:18:39.984Z,77.33
2019-01-15T11:21:07.950Z,77.34
2019-01-15T11:23:36.013Z,77.19
2019-01-15T11:26:03.972Z,76.75
2019-01-15T11:28:31.965Z,76.34
2019-01-15T11:31:00.448Z,76.00
2019-01-15T11:33:28.399Z,75.44
2019-01-15T11:35:56.013Z,74.79
2019-01-15T11:38:23.656Z,74.71
2019-01-15T11:40:51.588Z,72.68
2019-01-15T11:43:19.584Z,72.63
2019-01-15T11:45:47.204Z,72.51
2019-01-15T11:48:14.831Z,71.96
2019-01-15T11:50:42.752Z,72.21
2019-01-15T11:53:10.370Z,72.08
2019-01-15T11:55:38.276Z,71.36
2019-01-15T11:58:05.899Z,72.20
2019-01-15T12:00:43.747Z,71.88
2019-01-15T12:03:24.337Z,72.06
2019-01-15T12:06:29.350Z,72.85
2019-01-15T12:09:10.013Z,72.99
2019-01-15T12:11:55.698Z,73.71
2019-01-15T12:14:48.551Z,74.10
2019-01-15T12:17:34.135Z,73.91
2019-01-15T12:20:19.357Z,74.31
2019-01-15T12:23:10.151Z,75.30
2019-01-15T12:25:45.561Z,75.28
2019-01-15T12:28:29.296Z,75.02
2019-01-15T12:31:14.984Z,75.00
2019-01-15T12:34:09.510Z,75.29
2019-01-15T12:36:59.256Z,75.29
2019-01-15T12:39:48.316Z,75.70
2019-01-15T12:42:39.029Z,75.34
2019-01-15T12:45:18.429Z,76.27
2019-01-15T12:48:09.675Z,76.31
2019-01-15T12:51:00.073Z,76.52
2019-01-15T12:53:37.975Z,76.95
2019-01-15T12:56:30.724Z,77.66
2019-01-15T12:59:16.722Z,77.50
2019-01-15T13:02:02.706Z,79.34
2019-01-15T13:04:46.904Z,79.73
2019-01-15T13:07:40.025Z,80.57
2019-01-15T13:10:27.045Z,81.21
2019-01-15T13:13:29.539Z,81.46
2019-01-15T13:16:12.085Z,82.52
2019-01-15T13:18:55.918Z,82.84
2019-01-15T13:21:36.844Z,83.66
2019-01-15T13:24:25.740Z,84.04
2019-01-15T13:27:15.526Z,83.99
2019-01-15T13:30:06.509Z,83.92
2019-01-15T13:33:05.509Z,84.44
2019-01-15T13:35:44.829Z,84.50
2019-01-15T13:38:27.455Z,84.49
2019-01-15T13:41:14.468Z,84.08
2019-01-15T13:44:16.830Z,84.07
2019-01-15T13:47:03.919Z,83.85
2019-01-15T13:49:45.687Z,83.73
2019-01-15T13:52:31.844Z,84.00
2019-01-15T13:55:26.225Z,84.40
2019-01-15T13:58:20.548Z,83.99
2019-01-15T14:00:58.357Z,83.97
2019-01-15T14:03:36.535Z,84.62
2019-01-15T14:06:25.209Z,84.11
2019-01-15T14:09:17.945Z,83.67
2019-01-15T14:12:17.086Z,84.21
2019-01-15T14:14:59.264Z,84.27
2019-01-15T14:17:40.862Z,84.04
2019-01-15T14:20:27.544Z,84.83
2019-01-15T14:23:12.975Z,83.84
2019-01-15T14:25:49.377Z,84.30
2019-01-15T14:28:51.751Z,84.56
2019-01-15T14:31:38.775Z,84.33
2019-01-15T14:34:31.403Z,83.80
2019-01-15T14:37:13.089Z,83.69
2019-01-15T14:39:53.802Z,83.97
2019-01-15T14:42:35.684Z,83.64
2019-01-15T14:45:34.389Z,83.98
2019-01-15T14:48:21.607Z,83.78
2019-01-15T14:51:07.792Z,83.55
2019-01-15T14:54:00.979Z,82.83
2019-01-15T14:56:42.412Z,83.58
2019-01-15T14:59:28.221Z,82.83
2019-01-15T15:02:13.861Z,83.01
2019-01-15T15:04:59.459Z,82.37
2019-01-15T15:07:44.160Z,83.31
2019-01-15T15:10:23.716Z,83.47
2019-01-15T15:13:10.797Z,82.85
2019-01-15T15:16:03.887Z,82.98
2019-01-15T15:18:54.308Z,82.88
2019-01-15T15:21:50.384Z,82.48
2019-01-15T15:24:31.258Z,82.27
2019-01-15T15:27:15.307Z,82.30
2019-01-15T15:30:00.083Z,82.12
2019-01-15T15:32:42.775Z,81.76
2019-01-15T15:35:42.815Z,82.00
2019-01-15T15:38:28.899Z,82.93
2019-01-15T15:41:21.719Z,82.44
2019-01-15T15:43:58.543Z,82.63
2019-01-15T15:46:48.409Z,82.62
2019-01-15T15:49:40.470Z,82.70
2019-01-15T15:52:25.719Z,83.17
2019-01-15T15:55:05.184Z,83.61
2019-01-15T15:57:41.249Z,83.90
2019-01-15T16:00:36.525Z,84.04
2019-01-15T16:03:38.408Z,83.44
2019-01-15T16:06:15.509Z,84.55
2019-01-15T16:09:00.032Z,84.45
2019-01-15T16:11:49.505Z,84.62
2019-01-15T16:14:28.028Z,84.54
2019-01-15T16:17:09.514Z,85.04
2019-01-15T16:19:57.065Z,85.18
2019-01-15T16:22:34.530Z,85.00
2019-01-15T16:25:21.242Z,84.78
2019-01-15T16:28:08.382Z,84.59
2019-01-15T16:30:54.795Z,84.47
2019-01-15T16:33:44.867Z,84.52
2019-01-15T16:36:31.153Z,84.86
2019-01-15T16:39:17.820Z,85.13
2019-01-15T16:41:57.196Z,84.33
2019-01-15T16:44:44.745Z,83.72
2019-01-15T16:47:30.451Z,83.57
2019-01-15T16:50:24.289Z,83.32
2019-01-15T16:53:14.680Z,83.37
2019-01-15T16:56:00.369Z,83.10
2019-01-15T16:58:46.084Z,83.29
2019-01-15T17:01:32.050Z,83.34
2019-01-15T17:04:34.216Z,82.27
2019-01-15T17:07:14.415Z,82.23
2019-01-15T17:10:03.852Z,82.15
2019-01-15T17:12:57.748Z,81.47
2019-01-15T17:15:43.813Z,81.35
2019-01-15T17:18:29.808Z,81.57
2019-01-15T17:21:15.114Z,81.53
2019-01-15T17:23:55.237Z,81.25
2019-01-15T17:26:45.123Z,80.75
2019-01-15T17:29:30.795Z,79.85
2019-01-15T17:32:33.083Z,80.29
2019-01-15T17:35:09.681Z,80.67
2019-01-15T17:37:55.558Z,78.80
2019-01-15T17:40:57.918Z,79.59
2019-01-15T17:43:52.514Z,79.25
2019-01-15T17:46:31.951Z,79.40
2019-01-15T17:49:17.638Z,78.79
2019-01-15T17:52:04.650Z,78.42
2019-01-15T17:54:51.668Z,79.01
2019-01-15T17:57:34.392Z,78.03
2019-01-15T18:00:30.746Z,78.28
2019-01-15T18:03:19.098Z,78.71
2019-01-15T18:05:59.382Z,79.72
2019-01-15T18:08:49.619Z,81.16
2019-01-15T18:11:38.985Z,81.66
2019-01-15T18:14:27.183Z,82.12
2019-01-15T18:17:15.992Z,82.42
2019-01-15T18:20:04.464Z,83.40
2019-01-15T18:22:51.712Z,83.54
2019-01-15T18:25:37.350Z,84.17
2019-01-15T18:28:30.965Z,84.79
2019-01-15T18:31:16.598Z,85.20
2019-01-15T18:34:12.651Z,85.57
2019-01-15T18:36:57.291Z,85.92
2019-01-15T18:39:50.553Z,85.82
2019-01-15T18:42:36.237Z,85.15
2019-01-15T18:45:11.577Z,85.79
2019-01-15T18:47:50.808Z,85.19
2019-01-15T18:50:36.166Z,85.50
2019-01-15T18:53:21.301Z,85.33
2019-01-15T18:56:08.298Z,85.13
2019-01-15T18:59:10.451Z,85.10
2019-01-15T19:01:59.922Z,84.94
2019-01-15T19:04:53.006Z,84.48
2019-01-15T19:07:38.369Z,83.94
2019-01-15T19:10:25.374Z,83.93
2019-01-15T19:13:07.271Z,83.56
2019-01-15T19:15:56.538Z,83.82
2019-01-15T19:18:38.571Z,83.39
2019-01-15T19:21:37.756Z,82.57
2019-01-15T19:24:15.992Z,83.06
2019-01-15T19:27:01.160Z,83.15
2019-01-15T19:29:43.740Z,82.70
2019-01-15T19:32:30.079Z,82.47
2019-01-15T19:35:15.842Z,81.94
2019-01-15T19:38:11.750Z,82.20
2019-01-15T19:40:57.228Z,82.05
2019-01-15T19:43:42.818Z,81.92
2019-01-15T19:46:21.026Z,81.28
2019-01-15T19:49:13.845Z,81.74
2019-01-15T19:51:59.480Z,81.66
2019-01-15T19:54:40.564Z,81.09
2019-01-15T19:57:15.750Z,80.93
2019-01-15T20:00:01.462Z,81.33
2019-01-15T20:02:48.071Z,81.14
2019-01-15T20:05:47.375Z,81.31
2019-01-15T20:08:35.510Z,81.67
2019-01-15T20:11:21.095Z,81.37
2019-01-15T20:14:06.779Z,81.06
2019-01-15T20:16:52.238Z,80.78
2019-01-15T20:19:32.950Z,81.50
2019-01-15T20:22:18.510Z,80.56
2019-01-15T20:24:56.928Z,80.38
2019-01-15T20:27:42.859Z,80.54
2019-01-15T20:30:24.509Z,80.04
2019-01-15T20:33:09.920Z,79.53
2019-01-15T20:35:55.529Z,79.95
2019-01-15T20:38:33.468Z,79.22
2019-01-15T20:41:14.347Z,78.98
2019-01-15T20:43:54.734Z,78.89
2019-01-15T20:46:41.412Z,78.40
2019-01-15T20:49:28.427Z,77.72
2019-01-15T20:52:14.427Z,77.77
2019-01-15T20:54:53.277Z,78.29
2019-01-15T20:57:47.023Z,78.15
2019-01-15T21:00:36.593Z,77.75
2019-01-15T21:03:17.776Z,77.10
2019-01-15T21:06:20.151Z,77.12
2019-01-15T21:09:00.412Z,77.18
2019-01-15T21:11:47.431Z,76.72
2019-01-15T21:14:29.643Z,75.81
2019-01-15T21:17:10.057Z,75.18
2019-01-15T21:19:50.554Z,75.75
2019-01-15T21:22:38.489Z,75.43
2019-01-15T21:25:28.603Z,75.93
2019-01-15T21:28:06.920Z,75.22
2019-01-15T21:30:52.883Z,74.63
2019-01-15T21:33:29.904Z,74.89
2019-01-15T21:36:22.851Z,75.02
2019-01-15T21:39:09.321Z,75.25
2019-01-15T21:41:56.343Z,75.42
2019-01-15T21:44:37.995Z,76.75
2019-01-15T21:47:16.883Z,75.91
2019-01-15T21:50:02.210Z,77.22
2019-01-15T21:52:48.125Z,77.87
2019-01-15T21:55:44.563Z,79.30
2019-01-15T21:58:18.986Z,79.55
2019-01-15T22:01:04.906Z,78.49
2019-01-15T22:03:54.796Z,79.01
2019-01-15T22:06:41.876Z,79.91
2019-01-15T22:09:31.656Z,79.71
2019-01-15T22:12:18.411Z,79.86
2019-01-15T22:15:04.367Z,80.75
2019-01-15T22:17:54.134Z,80.86
2019-01-15T22:20:39.522Z,80.57
2019-01-15T22:23:35.749Z,80.72
2019-01-15T22:26:28.599Z,82.14
2019-01-15T22:29:18.484Z,82.04
2019-01-15T22:32:02.666Z,81.82
2019-01-15T22:34:48.321Z,80.90
2019-01-15T22:37:29.939Z,81.39
2019-01-15T22:40:19.414Z,81.85
2019-01-15T22:42:55.159Z,81.19
2019-01-15T22:45:43.701Z,80.42
2019-01-15T22:48:26.812Z,81.06
2019-01-15T22:51:22.840Z,80.87
2019-01-15T22:54:15.895Z,81.63
2019-01-15T22:56:54.739Z,81.51
2019-01-15T22:59:41.160Z,82.49
2019-01-15T23:02:34.181Z,82.86
2019-01-15T23:05:23.967Z,82.38
2019-01-15T23:08:09.442Z,82.55
2019-01-15T23:10:55.349Z,82.95
2019-01-15T23:13:34.252Z,82.53
2019-01-15T23:16:13.014Z,83.50
2019-01-15T23:18:48.351Z,82.55
2019-01-15T23:21:32.982Z,83.52
2019-01-15T23:24:29.010Z,82.73
2019-01-15T23:27:22.065Z,83.46
2019-01-15T23:30:13.592Z,84.62
2019-01-15T23:32:54.670Z,84.41
2019-01-15T23:35:40.553Z,84.13
2019-01-15T23:38:39.763Z,83.55
2019-01-15T23:41:18.993Z,83.48
2019-01-15T23:44:00.408Z,83.57
2019-01-15T23:46:39.017Z,83.06
2019-01-15T23:49:31.898Z,83.48
2019-01-15T23:52:17.839Z,83.88
2019-01-15T23:54:56.396Z,84.47
2019-01-15T23:57:48.111Z,84.28
